Frances, Washington
Current Conditions -  °F | °C
As of 2:53 PM on Wednesday 26 Nov 2014 (Local Time) from KHQM Reporting Station
Haze Haze  
Wind Chill: 54°   Ceiling: 2700
Heat Index: 54°   Visibility: 6mi
Dew Point: 52°   Wind: 7mph
Humidity: 93%   Direction: 100°E
Pressure: 30.02"   Gusts: NA
Location:  46.6563°N, 123.58°W
Report Text: KHQM 262253Z AUTO 10006KT 6SM BR FEW015 OVC027 12/11 A3002 RMK AO2 SLP168 T01220111
Loading
Personal Weather Stations






























Interactive Weather Map New forecast layout! Learn more

10-Day Weather Forecast

Advertisements
Track Severe Weather on mobile